sensor_id;sensor_type;location;lat;lon;timestamp;P1;durP1;ratioP1;P2;durP2;ratioP2
7933;SDS011;4012;48.896;9.192;2024-03-02T00:01:12;12.90;;;10.20;;
7933;SDS011;4012;48.896;9.192;2024-03-02T00:03:38;12.47;;;10.23;;
7933;SDS011;4012;48.896;9.192;2024-03-02T00:06:04;14.20;;;9.83;;
7933;SDS011;4012;48.896;9.192;2024-03-02T00:08:29;14.83;;;11.37;;
7933;SDS011;4012;48.896;9.192;2024-03-02T00:10:59;13.60;;;10.47;;
7933;SDS011;4012;48.896;9.192;2024-03-02T00:13:25;10.93;;;9.57;;
7933;SDS011;4012;48.896;9.192;2024-03-02T00:15:55;12.30;;;9.80;;
7933;SDS011;4012;48.896;9.192;2024-03-02T00:18:31;12.87;;;9.93;;
7933;SDS011;4012;48.896;9.192;2024-03-02T00:20:58;14.90;;;9.47;;
7933;SDS011;4012;48.896;9.192;2024-03-02T00:23:31;12.40;;;9.77;;
7933;SDS011;4012;48.896;9.192;2024-03-02T00:25:58;11.57;;;9.50;;
7933;SDS011;4012;48.896;9.192;2024-03-02T00:28:27;11.83;;;9.23;;
7933;SDS011;4012;48.896;9.192;2024-03-02T00:33:39;13.30;;;10.13;;
7933;SDS011;4012;48.896;9.192;2024-03-02T00:36:07;13.73;;;9.93;;
7933;SDS011;4012;48.896;9.192;2024-03-02T00:38:33;12.50;;;9.37;;
7933;SDS011;4012;48.896;9.192;2024-03-02T00:41:06;11.60;;;9.60;;
7933;SDS011;4012;48.896;9.192;2024-03-02T00:46:19;12.13;;;10.30;;
7933;SDS011;4012;48.896;9.192;2024-03-02T00:48:50;13.43;;;10.10;;
7933;SDS011;4012;48.896;9.192;2024-03-02T00:51:19;14.87;;;9.40;;
7933;SDS011;4012;48.896;9.192;2024-03-02T00:53:49;14.07;;;10.17;;
7933;SDS011;4012;48.896;9.192;2024-03-02T00:56:16;13.47;;;10.83;;
7933;SDS011;4012;48.896;9.192;2024-03-02T00:58:42;12.57;;;10.40;;
7933;SDS011;4012;48.896;9.192;2024-03-02T01:01:07;13.80;;;9.90;;
7933;SDS011;4012;48.896;9.192;2024-03-02T01:03:33;14.07;;;9.53;;
7933;SDS011;4012;48.896;9.192;2024-03-02T01:05:59;12.77;;;10.67;;
7933;SDS011;4012;48.896;9.192;2024-03-02T01:08:25;13.83;;;10.63;;
7933;SDS011;4012;48.896;9.192;2024-03-02T01:10:51;14.67;;;10.23;;
7933;SDS011;4012;48.896;9.192;2024-03-02T01:13:17;11.97;;;9.57;;
7933;SDS011;4012;48.896;9.192;2024-03-02T01:15:42;14.53;;;10.37;;
7933;SDS011;4012;48.896;9.192;2024-03-02T01:18:08;12.13;;;10.00;;
7933;SDS011;4012;48.896;9.192;2024-03-02T01:20:34;13.60;;;10.03;;
7933;SDS011;4012;48.896;9.192;2024-03-02T01:23:00;13.17;;;10.10;;
7933;SDS011;4012;48.896;9.192;2024-03-02T01:25:25;12.57;;;9.83;;
7933;SDS011;4012;48.896;9.192;2024-03-02T01:27:51;13.20;;;9.77;;
7933;SDS011;4012;48.896;9.192;2024-03-02T01:30:16;13.93;;;10.93;;
7933;SDS011;4012;48.896;9.192;2024-03-02T01:32:42;11.73;;;9.83;;
7933;SDS011;4012;48.896;9.192;2024-03-02T01:35:08;12.97;;;10.10;;
7933;SDS011;4012;48.896;9.192;2024-03-02T01:37:33;13.33;;;10.53;;
7933;SDS011;4012;48.896;9.192;2024-03-02T01:39:59;12.73;;;10.13;;
7933;SDS011;4012;48.896;9.192;2024-03-02T01:42:25;12.73;;;9.73;;
7933;SDS011;4012;48.896;9.192;2024-03-02T01:44:51;12.73;;;9.77;;
7933;SDS011;4012;48.896;9.192;2024-03-02T01:47:16;12.90;;;9.80;;
7933;SDS011;4012;48.896;9.192;2024-03-02T01:49:42;12.67;;;10.07;;
7933;SDS011;4012;48.896;9.192;2024-03-02T01:52:08;12.40;;;10.00;;
7933;SDS011;4012;48.896;9.192;2024-03-02T01:54:34;12.93;;;10.47;;
7933;SDS011;4012;48.896;9.192;2024-03-02T01:56:59;14.60;;;10.40;;
7933;SDS011;4012;48.896;9.192;2024-03-02T01:59:25;13.37;;;9.97;;
7933;SDS011;4012;48.896;9.192;2024-03-02T02:01:51;14.17;;;10.57;;
7933;SDS011;4012;48.896;9.192;2024-03-02T02:04:17;12.27;;;9.27;;
7933;SDS011;4012;48.896;9.192;2024-03-02T02:06:43;11.97;;;10.13;;
7933;SDS011;4012;48.896;9.192;2024-03-02T02:09:09;13.33;;;10.57;;
7933;SDS011;4012;48.896;9.192;2024-03-02T02:11:35;13.37;;;9.47;;
7933;SDS011;4012;48.896;9.192;2024-03-02T02:14:01;12.13;;;10.03;;
7933;SDS011;4012;48.896;9.192;2024-03-02T02:16:26;13.20;;;10.37;;
7933;SDS011;4012;48.896;9.192;2024-03-02T02:18:52;13.37;;;10.90;;
7933;SDS011;4012;48.896;9.192;2024-03-02T02:21:17;10.97;;;9.13;;
7933;SDS011;4012;48.896;9.192;2024-03-02T02:23:46;13.97;;;10.00;;
7933;SDS011;4012;48.896;9.192;2024-03-02T02:26:13;14.37;;;10.07;;
7933;SDS011;4012;48.896;9.192;2024-03-02T02:28:39;16.73;;;10.63;;
7933;SDS011;4012;48.896;9.192;2024-03-02T02:31:11;12.30;;;10.23;;
7933;SDS011;4012;48.896;9.192;2024-03-02T02:33:40;13.97;;;9.97;;
7933;SDS011;4012;48.896;9.192;2024-03-02T02:36:06;14.57;;;10.30;;
7933;SDS011;4012;48.896;9.192;2024-03-02T02:38:32;12.47;;;10.00;;
7933;SDS011;4012;48.896;9.192;2024-03-02T02:41:01;13.97;;;9.90;;
7933;SDS011;4012;48.896;9.192;2024-03-02T02:43:27;15.67;;;10.83;;
7933;SDS011;4012;48.896;9.192;2024-03-02T02:45:53;13.60;;;10.23;;
7933;SDS011;4012;48.896;9.192;2024-03-02T02:48:18;13.07;;;10.30;;
7933;SDS011;4012;48.896;9.192;2024-03-02T02:50:44;12.20;;;10.10;;
7933;SDS011;4012;48.896;9.192;2024-03-02T02:53:09;12.50;;;9.60;;
7933;SDS011;4012;48.896;9.192;2024-03-02T02:55:35;11.47;;;10.17;;
7933;SDS011;4012;48.896;9.192;2024-03-02T02:58:05;12.67;;;10.33;;
7933;SDS011;4012;48.896;9.192;2024-03-02T03:00:31;13.03;;;10.13;;
7933;SDS011;4012;48.896;9.192;2024-03-02T03:02:56;13.07;;;10.33;;
7933;SDS011;4012;48.896;9.192;2024-03-02T03:05:22;12.53;;;8.87;;
7933;SDS011;4012;48.896;9.192;2024-03-02T03:07:47;13.07;;;11.13;;
7933;SDS011;4012;48.896;9.192;2024-03-02T03:10:15;15.43;;;11.53;;
7933;SDS011;4012;48.896;9.192;2024-03-02T03:12:41;13.70;;;10.97;;
7933;SDS011;4012;48.896;9.192;2024-03-02T03:15:07;15.50;;;10.87;;
7933;SDS011;4012;48.896;9.192;2024-03-02T03:17:34;17.53;;;11.67;;
7933;SDS011;4012;48.896;9.192;2024-03-02T03:20:00;15.23;;;11.17;;
7933;SDS011;4012;48.896;9.192;2024-03-02T03:22:26;13.97;;;10.87;;
7933;SDS011;4012;48.896;9.192;2024-03-02T03:24:52;13.80;;;11.07;;
7933;SDS011;4012;48.896;9.192;2024-03-02T03:27:18;15.03;;;11.27;;
7933;SDS011;4012;48.896;9.192;2024-03-02T03:29:44;14.53;;;10.93;;
7933;SDS011;4012;48.896;9.192;2024-03-02T03:32:10;14.53;;;10.70;;
7933;SDS011;4012;48.896;9.192;2024-03-02T03:34:36;15.17;;;10.43;;
7933;SDS011;4012;48.896;9.192;2024-03-02T03:37:02;14.67;;;10.23;;
7933;SDS011;4012;48.896;9.192;2024-03-02T03:39:27;13.87;;;11.10;;
7933;SDS011;4012;48.896;9.192;2024-03-02T03:41:53;14.67;;;11.43;;
7933;SDS011;4012;48.896;9.192;2024-03-02T03:44:19;15.23;;;11.23;;
7933;SDS011;4012;48.896;9.192;2024-03-02T03:46:44;13.70;;;11.20;;
7933;SDS011;4012;48.896;9.192;2024-03-02T03:49:10;16.10;;;10.80;;
7933;SDS011;4012;48.896;9.192;2024-03-02T03:51:36;14.17;;;10.53;;
7933;SDS011;4012;48.896;9.192;2024-03-02T03:54:01;13.03;;;10.20;;
7933;SDS011;4012;48.896;9.192;2024-03-02T03:56:27;10.83;;;8.67;;
7933;SDS011;4012;48.896;9.192;2024-03-02T03:58:52;14.83;;;10.83;;
7933;SDS011;4012;48.896;9.192;2024-03-02T04:01:18;12.10;;;10.47;;
7933;SDS011;4012;48.896;9.192;2024-03-02T04:03:44;16.33;;;11.53;;
7933;SDS011;4012;48.896;9.192;2024-03-02T04:06:10;15.27;;;10.83;;
7933;SDS011;4012;48.896;9.192;2024-03-02T04:08:35;14.93;;;10.47;;
7933;SDS011;4012;48.896;9.192;2024-03-02T04:11:01;15.17;;;10.93;;
7933;SDS011;4012;48.896;9.192;2024-03-02T04:13:28;12.97;;;10.33;;
7933;SDS011;4012;48.896;9.192;2024-03-02T04:15:53;13.30;;;10.37;;
7933;SDS011;4012;48.896;9.192;2024-03-02T04:18:19;13.83;;;11.00;;
7933;SDS011;4012;48.896;9.192;2024-03-02T04:20:44;15.83;;;12.70;;
7933;SDS011;4012;48.896;9.192;2024-03-02T04:23:10;12.23;;;9.63;;
7933;SDS011;4012;48.896;9.192;2024-03-02T04:25:35;16.83;;;11.40;;
7933;SDS011;4012;48.896;9.192;2024-03-02T04:28:01;14.53;;;10.40;;
7933;SDS011;4012;48.896;9.192;2024-03-02T04:30:27;11.63;;;9.33;;
7933;SDS011;4012;48.896;9.192;2024-03-02T04:32:52;14.47;;;11.13;;
7933;SDS011;4012;48.896;9.192;2024-03-02T04:35:18;12.83;;;10.03;;
7933;SDS011;4012;48.896;9.192;2024-03-02T04:37:43;15.27;;;11.63;;
7933;SDS011;4012;48.896;9.192;2024-03-02T04:40:09;15.37;;;11.17;;
7933;SDS011;4012;48.896;9.192;2024-03-02T04:42:35;14.30;;;10.67;;
7933;SDS011;4012;48.896;9.192;2024-03-02T04:45:01;19.03;;;11.10;;
7933;SDS011;4012;48.896;9.192;2024-03-02T04:47:26;15.37;;;10.50;;
7933;SDS011;4012;48.896;9.192;2024-03-02T04:49:52;15.13;;;11.03;;
7933;SDS011;4012;48.896;9.192;2024-03-02T04:52:18;16.37;;;10.90;;
7933;SDS011;4012;48.896;9.192;2024-03-02T04:54:43;13.97;;;9.83;;
7933;SDS011;4012;48.896;9.192;2024-03-02T04:57:28;14.80;;;11.03;;
7933;SDS011;4012;48.896;9.192;2024-03-02T04:59:53;17.27;;;10.67;;
7933;SDS011;4012;48.896;9.192;2024-03-02T05:02:19;13.27;;;9.30;;
7933;SDS011;4012;48.896;9.192;2024-03-02T05:04:44;14.83;;;10.93;;
7933;SDS011;4012;48.896;9.192;2024-03-02T05:07:10;16.47;;;10.97;;
7933;SDS011;4012;48.896;9.192;2024-03-02T05:09:35;15.90;;;11.33;;
7933;SDS011;4012;48.896;9.192;2024-03-02T05:12:01;14.97;;;11.13;;
7933;SDS011;4012;48.896;9.192;2024-03-02T05:14:45;15.60;;;10.87;;
7933;SDS011;4012;48.896;9.192;2024-03-02T05:17:11;14.90;;;11.83;;
7933;SDS011;4012;48.896;9.192;2024-03-02T05:19:36;16.40;;;11.70;;
7933;SDS011;4012;48.896;9.192;2024-03-02T05:22:03;18.73;;;13.40;;
7933;SDS011;4012;48.896;9.192;2024-03-02T05:24:29;16.17;;;11.77;;
7933;SDS011;4012;48.896;9.192;2024-03-02T05:26:54;14.53;;;11.10;;
7933;SDS011;4012;48.896;9.192;2024-03-02T05:29:20;15.77;;;12.10;;
7933;SDS011;4012;48.896;9.192;2024-03-02T05:31:46;14.87;;;10.87;;
7933;SDS011;4012;48.896;9.192;2024-03-02T05:34:12;14.87;;;11.77;;
7933;SDS011;4012;48.896;9.192;2024-03-02T05:36:37;16.47;;;11.93;;
7933;SDS011;4012;48.896;9.192;2024-03-02T05:39:04;16.43;;;11.63;;
7933;SDS011;4012;48.896;9.192;2024-03-02T05:41:31;16.93;;;12.03;;
7933;SDS011;4012;48.896;9.192;2024-03-02T05:43:57;15.17;;;11.60;;
7933;SDS011;4012;48.896;9.192;2024-03-02T05:46:22;14.70;;;11.53;;
7933;SDS011;4012;48.896;9.192;2024-03-02T05:48:48;15.17;;;11.57;;
7933;SDS011;4012;48.896;9.192;2024-03-02T05:51:13;18.03;;;12.10;;
7933;SDS011;4012;48.896;9.192;2024-03-02T05:53:39;16.80;;;11.70;;
7933;SDS011;4012;48.896;9.192;2024-03-02T05:56:05;17.07;;;12.70;;
7933;SDS011;4012;48.896;9.192;2024-03-02T05:58:31;17.83;;;12.17;;
7933;SDS011;4012;48.896;9.192;2024-03-02T06:01:22;17.43;;;12.00;;
7933;SDS011;4012;48.896;9.192;2024-03-02T06:03:53;18.20;;;12.70;;
7933;SDS011;4012;48.896;9.192;2024-03-02T06:06:25;17.67;;;11.83;;
7933;SDS011;4012;48.896;9.192;2024-03-02T06:08:50;16.10;;;12.60;;
7933;SDS011;4012;48.896;9.192;2024-03-02T06:11:16;18.17;;;12.93;;
7933;SDS011;4012;48.896;9.192;2024-03-02T06:13:42;17.97;;;13.27;;
7933;SDS011;4012;48.896;9.192;2024-03-02T06:16:08;16.40;;;13.07;;
7933;SDS011;4012;48.896;9.192;2024-03-02T06:18:33;17.77;;;13.57;;
7933;SDS011;4012;48.896;9.192;2024-03-02T06:20:59;18.40;;;12.53;;
7933;SDS011;4012;48.896;9.192;2024-03-02T06:23:26;19.50;;;13.90;;
7933;SDS011;4012;48.896;9.192;2024-03-02T06:25:52;17.90;;;13.50;;
7933;SDS011;4012;48.896;9.192;2024-03-02T06:28:17;17.07;;;12.17;;
7933;SDS011;4012;48.896;9.192;2024-03-02T06:30:43;20.20;;;13.13;;
7933;SDS011;4012;48.896;9.192;2024-03-02T06:33:09;17.90;;;13.07;;
7933;SDS011;4012;48.896;9.192;2024-03-02T06:35:35;18.07;;;13.53;;
7933;SDS011;4012;48.896;9.192;2024-03-02T06:38:00;17.63;;;13.17;;
7933;SDS011;4012;48.896;9.192;2024-03-02T06:40:26;16.27;;;13.07;;
7933;SDS011;4012;48.896;9.192;2024-03-02T06:42:52;18.10;;;12.47;;
7933;SDS011;4012;48.896;9.192;2024-03-02T06:45:17;17.40;;;12.67;;
7933;SDS011;4012;48.896;9.192;2024-03-02T06:47:43;17.97;;;12.80;;
7933;SDS011;4012;48.896;9.192;2024-03-02T06:50:09;18.07;;;13.43;;
7933;SDS011;4012;48.896;9.192;2024-03-02T06:52:35;16.40;;;12.20;;
7933;SDS011;4012;48.896;9.192;2024-03-02T06:55:01;15.07;;;12.53;;
7933;SDS011;4012;48.896;9.192;2024-03-02T06:57:27;17.67;;;12.07;;
7933;SDS011;4012;48.896;9.192;2024-03-02T06:59:52;14.67;;;12.57;;
7933;SDS011;4012;48.896;9.192;2024-03-02T07:02:20;15.07;;;12.47;;
7933;SDS011;4012;48.896;9.192;2024-03-02T07:04:46;17.47;;;13.27;;
7933;SDS011;4012;48.896;9.192;2024-03-02T07:07:12;16.00;;;10.53;;
7933;SDS011;4012;48.896;9.192;2024-03-02T07:09:38;15.37;;;10.93;;
7933;SDS011;4012;48.896;9.192;2024-03-02T07:12:03;17.70;;;12.13;;
7933;SDS011;4012;48.896;9.192;2024-03-02T07:14:29;14.43;;;10.97;;
7933;SDS011;4012;48.896;9.192;2024-03-02T07:17:13;16.30;;;11.53;;
7933;SDS011;4012;48.896;9.192;2024-03-02T07:19:39;14.60;;;11.70;;
7933;SDS011;4012;48.896;9.192;2024-03-02T07:22:07;16.40;;;10.90;;
7933;SDS011;4012;48.896;9.192;2024-03-02T07:24:40;15.87;;;11.07;;
7933;SDS011;4012;48.896;9.192;2024-03-02T07:27:06;17.53;;;11.60;;
7933;SDS011;4012;48.896;9.192;2024-03-02T07:29:33;12.87;;;10.60;;
7933;SDS011;4012;48.896;9.192;2024-03-02T07:31:59;12.90;;;11.37;;
7933;SDS011;4012;48.896;9.192;2024-03-02T07:34:24;13.00;;;10.43;;
7933;SDS011;4012;48.896;9.192;2024-03-02T07:36:50;10.83;;;9.33;;
7933;SDS011;4012;48.896;9.192;2024-03-02T07:39:15;13.07;;;9.90;;
7933;SDS011;4012;48.896;9.192;2024-03-02T07:41:41;12.70;;;10.07;;
7933;SDS011;4012;48.896;9.192;2024-03-02T07:44:07;11.37;;;9.23;;
7933;SDS011;4012;48.896;9.192;2024-03-02T07:46:32;11.27;;;9.50;;
7933;SDS011;4012;48.896;9.192;2024-03-02T07:48:58;12.43;;;8.70;;
7933;SDS011;4012;48.896;9.192;2024-03-02T07:51:24;12.60;;;8.80;;
7933;SDS011;4012;48.896;9.192;2024-03-02T07:53:49;14.33;;;9.40;;
7933;SDS011;4012;48.896;9.192;2024-03-02T07:56:15;10.87;;;9.50;;
7933;SDS011;4012;48.896;9.192;2024-03-02T07:58:47;12.67;;;9.53;;
7933;SDS011;4012;48.896;9.192;2024-03-02T08:01:14;10.73;;;8.63;;
7933;SDS011;4012;48.896;9.192;2024-03-02T08:03:39;10.47;;;8.93;;
7933;SDS011;4012;48.896;9.192;2024-03-02T08:06:08;13.10;;;8.57;;
7933;SDS011;4012;48.896;9.192;2024-03-02T08:08:34;11.53;;;8.83;;
7933;SDS011;4012;48.896;9.192;2024-03-02T08:10:59;11.30;;;9.07;;
7933;SDS011;4012;48.896;9.192;2024-03-02T08:13:25;10.60;;;9.03;;
7933;SDS011;4012;48.896;9.192;2024-03-02T08:15:51;9.20;;;7.43;;
7933;SDS011;4012;48.896;9.192;2024-03-02T08:18:18;11.23;;;9.80;;
7933;SDS011;4012;48.896;9.192;2024-03-02T08:20:43;11.47;;;8.57;;
7933;SDS011;4012;48.896;9.192;2024-03-02T08:23:09;8.80;;;7.90;;
7933;SDS011;4012;48.896;9.192;2024-03-02T08:25:35;11.77;;;9.37;;
7933;SDS011;4012;48.896;9.192;2024-03-02T08:28:01;9.63;;;7.90;;
7933;SDS011;4012;48.896;9.192;2024-03-02T08:30:27;11.70;;;7.80;;
7933;SDS011;4012;48.896;9.192;2024-03-02T08:32:53;9.60;;;7.20;;
7933;SDS011;4012;48.896;9.192;2024-03-02T08:35:18;7.77;;;6.93;;
7933;SDS011;4012;48.896;9.192;2024-03-02T08:37:44;8.13;;;7.27;;
7933;SDS011;4012;48.896;9.192;2024-03-02T08:40:10;8.73;;;6.73;;
7933;SDS011;4012;48.896;9.192;2024-03-02T08:42:35;7.33;;;6.33;;
7933;SDS011;4012;48.896;9.192;2024-03-02T08:45:01;9.43;;;7.13;;
7933;SDS011;4012;48.896;9.192;2024-03-02T08:47:27;6.53;;;5.93;;
7933;SDS011;4012;48.896;9.192;2024-03-02T08:49:52;6.60;;;5.83;;
7933;SDS011;4012;48.896;9.192;2024-03-02T08:52:18;6.17;;;5.57;;
7933;SDS011;4012;48.896;9.192;2024-03-02T08:54:44;6.33;;;5.47;;
7933;SDS011;4012;48.896;9.192;2024-03-02T08:57:09;6.07;;;5.43;;
7933;SDS011;4012;48.896;9.192;2024-03-02T08:59:35;6.30;;;5.70;;
7933;SDS011;4012;48.896;9.192;2024-03-02T09:02:01;5.70;;;5.20;;
7933;SDS011;4012;48.896;9.192;2024-03-02T09:04:27;5.87;;;4.43;;
7933;SDS011;4012;48.896;9.192;2024-03-02T09:06:53;4.87;;;4.47;;
7933;SDS011;4012;48.896;9.192;2024-03-02T09:09:19;5.63;;;4.70;;
7933;SDS011;4012;48.896;9.192;2024-03-02T09:11:45;5.67;;;4.07;;
7933;SDS011;4012;48.896;9.192;2024-03-02T09:14:11;6.47;;;4.47;;
7933;SDS011;4012;48.896;9.192;2024-03-02T09:16:37;5.43;;;4.93;;
7933;SDS011;4012;48.896;9.192;2024-03-02T09:19:03;5.10;;;4.70;;
7933;SDS011;4012;48.896;9.192;2024-03-02T09:21:28;4.83;;;4.43;;
7933;SDS011;4012;48.896;9.192;2024-03-02T09:23:55;5.17;;;4.70;;
7933;SDS011;4012;48.896;9.192;2024-03-02T09:26:21;4.97;;;4.50;;
7933;SDS011;4012;48.896;9.192;2024-03-02T09:28:49;5.03;;;4.53;;
7933;SDS011;4012;48.896;9.192;2024-03-02T09:31:15;4.57;;;4.13;;
7933;SDS011;4012;48.896;9.192;2024-03-02T09:33:41;4.40;;;4.00;;
7933;SDS011;4012;48.896;9.192;2024-03-02T09:36:16;4.70;;;4.30;;
7933;SDS011;4012;48.896;9.192;2024-03-02T09:38:45;5.17;;;4.43;;
7933;SDS011;4012;48.896;9.192;2024-03-02T09:41:11;3.77;;;3.47;;
7933;SDS011;4012;48.896;9.192;2024-03-02T09:43:37;4.27;;;3.73;;
7933;SDS011;4012;48.896;9.192;2024-03-02T09:46:03;4.00;;;3.70;;
7933;SDS011;4012;48.896;9.192;2024-03-02T09:48:29;3.93;;;3.53;;
7933;SDS011;4012;48.896;9.192;2024-03-02T09:50:55;3.63;;;3.33;;
7933;SDS011;4012;48.896;9.192;2024-03-02T09:53:22;4.30;;;3.90;;
7933;SDS011;4012;48.896;9.192;2024-03-02T09:55:48;5.57;;;4.23;;
7933;SDS011;4012;48.896;9.192;2024-03-02T09:58:14;3.83;;;3.53;;
7933;SDS011;4012;48.896;9.192;2024-03-02T10:00:39;4.27;;;3.20;;
7933;SDS011;4012;48.896;9.192;2024-03-02T10:03:05;4.20;;;3.90;;
7933;SDS011;4012;48.896;9.192;2024-03-02T10:05:37;4.47;;;4.07;;
7933;SDS011;4012;48.896;9.192;2024-03-02T10:08:03;4.10;;;3.70;;
7933;SDS011;4012;48.896;9.192;2024-03-02T10:10:39;4.10;;;3.30;;
7933;SDS011;4012;48.896;9.192;2024-03-02T10:13:07;4.87;;;3.53;;
7933;SDS011;4012;48.896;9.192;2024-03-02T10:15:34;3.47;;;3.07;;
7933;SDS011;4012;48.896;9.192;2024-03-02T10:18:02;3.70;;;3.40;;
7933;SDS011;4012;48.896;9.192;2024-03-02T10:20:33;3.50;;;3.20;;
7933;SDS011;4012;48.896;9.192;2024-03-02T10:23:15;3.63;;;3.00;;
7933;SDS011;4012;48.896;9.192;2024-03-02T10:25:42;3.40;;;3.07;;
7933;SDS011;4012;48.896;9.192;2024-03-02T10:28:09;3.70;;;3.40;;
7933;SDS011;4012;48.896;9.192;2024-03-02T10:30:35;3.50;;;3.20;;
7933;SDS011;4012;48.896;9.192;2024-03-02T10:33:04;3.67;;;2.90;;
7933;SDS011;4012;48.896;9.192;2024-03-02T10:35:31;3.20;;;2.90;;
7933;SDS011;4012;48.896;9.192;2024-03-02T10:37:58;3.77;;;3.43;;
7933;SDS011;4012;48.896;9.192;2024-03-02T10:40:26;3.50;;;2.80;;
7933;SDS011;4012;48.896;9.192;2024-03-02T10:42:52;4.07;;;2.90;;
7933;SDS011;4012;48.896;9.192;2024-03-02T10:45:19;4.53;;;3.43;;
7933;SDS011;4012;48.896;9.192;2024-03-02T10:47:49;3.33;;;2.53;;
7933;SDS011;4012;48.896;9.192;2024-03-02T10:50:15;4.67;;;3.30;;
7933;SDS011;4012;48.896;9.192;2024-03-02T10:52:41;2.70;;;2.50;;
7933;SDS011;4012;48.896;9.192;2024-03-02T10:55:08;3.17;;;2.80;;
7933;SDS011;4012;48.896;9.192;2024-03-02T10:57:53;3.60;;;3.30;;
7933;SDS011;4012;48.896;9.192;2024-03-02T11:00:21;4.67;;;2.80;;
7933;SDS011;4012;48.896;9.192;2024-03-02T11:02:58;3.60;;;3.30;;
7933;SDS011;4012;48.896;9.192;2024-03-02T11:05:36;2.80;;;2.60;;
7933;SDS011;4012;48.896;9.192;2024-03-02T11:08:08;3.37;;;3.00;;
7933;SDS011;4012;48.896;9.192;2024-03-02T11:10:41;4.07;;;3.17;;
7933;SDS011;4012;48.896;9.192;2024-03-02T11:13:16;3.33;;;3.00;;
7933;SDS011;4012;48.896;9.192;2024-03-02T11:15:47;4.97;;;2.73;;
7933;SDS011;4012;48.896;9.192;2024-03-02T11:18:15;3.53;;;3.20;;
7933;SDS011;4012;48.896;9.192;2024-03-02T11:20:41;4.72;;;3.45;;
7933;SDS011;4012;48.896;9.192;2024-03-02T11:23:08;3.63;;;3.17;;
7933;SDS011;4012;48.896;9.192;2024-03-02T11:25:34;3.83;;;2.57;;
7933;SDS011;4012;48.896;9.192;2024-03-02T11:28:04;4.53;;;3.10;;
7933;SDS011;4012;48.896;9.192;2024-03-02T11:33:02;2.97;;;2.30;;
7933;SDS011;4012;48.896;9.192;2024-03-02T11:35:34;2.73;;;2.13;;
7933;SDS011;4012;48.896;9.192;2024-03-02T11:38:07;3.80;;;2.13;;
7933;SDS011;4012;48.896;9.192;2024-03-02T11:40:34;2.53;;;2.33;;
7933;SDS011;4012;48.896;9.192;2024-03-02T11:43:00;2.00;;;1.80;;
7933;SDS011;4012;48.896;9.192;2024-03-02T11:45:26;2.53;;;1.83;;
7933;SDS011;4012;48.896;9.192;2024-03-02T11:47:54;1.90;;;1.80;;
7933;SDS011;4012;48.896;9.192;2024-03-02T11:50:46;1.93;;;1.70;;
7933;SDS011;4012;48.896;9.192;2024-03-02T11:53:13;3.37;;;1.77;;
7933;SDS011;4012;48.896;9.192;2024-03-02T11:55:40;1.80;;;1.70;;
7933;SDS011;4012;48.896;9.192;2024-03-02T11:58:06;2.20;;;1.80;;
7933;SDS011;4012;48.896;9.192;2024-03-02T12:00:32;1.67;;;1.53;;
7933;SDS011;4012;48.896;9.192;2024-03-02T12:05:31;3.07;;;2.27;;
7933;SDS011;4012;48.896;9.192;2024-03-02T12:07:58;2.10;;;1.90;;
7933;SDS011;4012;48.896;9.192;2024-03-02T12:10:33;2.00;;;1.50;;
7933;SDS011;4012;48.896;9.192;2024-03-02T12:13:00;1.77;;;1.63;;
7933;SDS011;4012;48.896;9.192;2024-03-02T12:15:27;3.13;;;2.10;;
7933;SDS011;4012;48.896;9.192;2024-03-02T12:17:54;2.43;;;1.97;;
7933;SDS011;4012;48.896;9.192;2024-03-02T12:20:21;2.87;;;2.00;;
7933;SDS011;4012;48.896;9.192;2024-03-02T12:22:49;1.77;;;1.53;;
7933;SDS011;4012;48.896;9.192;2024-03-02T12:25:19;1.40;;;1.30;;
7933;SDS011;4012;48.896;9.192;2024-03-02T12:27:45;2.37;;;1.60;;
7933;SDS011;4012;48.896;9.192;2024-03-02T12:30:18;2.17;;;1.80;;
7933;SDS011;4012;48.896;9.192;2024-03-02T12:32:44;1.60;;;1.50;;
7933;SDS011;4012;48.896;9.192;2024-03-02T12:35:11;1.73;;;1.60;;
7933;SDS011;4012;48.896;9.192;2024-03-02T12:37:49;1.77;;;1.67;;
7933;SDS011;4012;48.896;9.192;2024-03-02T12:40:18;1.73;;;1.47;;
7933;SDS011;4012;48.896;9.192;2024-03-02T12:42:45;1.83;;;1.40;;
7933;SDS011;4012;48.896;9.192;2024-03-02T12:45:11;3.27;;;1.60;;
7933;SDS011;4012;48.896;9.192;2024-03-02T12:47:38;3.40;;;1.50;;
7933;SDS011;4012;48.896;9.192;2024-03-02T12:50:05;2.37;;;1.50;;
7933;SDS011;4012;48.896;9.192;2024-03-02T12:52:32;1.57;;;1.47;;
7933;SDS011;4012;48.896;9.192;2024-03-02T12:54:59;1.93;;;1.40;;
7933;SDS011;4012;48.896;9.192;2024-03-02T12:57:26;2.63;;;1.60;;
7933;SDS011;4012;48.896;9.192;2024-03-02T12:59:57;1.90;;;1.70;;
7933;SDS011;4012;48.896;9.192;2024-03-02T13:02:26;1.60;;;1.40;;
7933;SDS011;4012;48.896;9.192;2024-03-02T13:04:53;1.30;;;1.20;;
7933;SDS011;4012;48.896;9.192;2024-03-02T13:07:19;1.33;;;1.20;;
7933;SDS011;4012;48.896;9.192;2024-03-02T13:09:47;1.97;;;1.47;;
7933;SDS011;4012;48.896;9.192;2024-03-02T13:12:15;2.73;;;1.60;;
7933;SDS011;4012;48.896;9.192;2024-03-02T13:14:41;1.43;;;1.20;;
7933;SDS011;4012;48.896;9.192;2024-03-02T13:17:07;1.60;;;1.27;;
7933;SDS011;4012;48.896;9.192;2024-03-02T13:19:39;1.50;;;1.10;;
7933;SDS011;4012;48.896;9.192;2024-03-02T13:22:18;2.20;;;1.10;;
7933;SDS011;4012;48.896;9.192;2024-03-02T13:24:44;1.10;;;1.00;;
7933;SDS011;4012;48.896;9.192;2024-03-02T13:27:09;1.40;;;1.30;;
7933;SDS011;4012;48.896;9.192;2024-03-02T13:29:35;1.20;;;1.10;;
7933;SDS011;4012;48.896;9.192;2024-03-02T13:32:01;2.33;;;1.00;;
7933;SDS011;4012;48.896;9.192;2024-03-02T13:34:26;2.50;;;1.27;;
7933;SDS011;4012;48.896;9.192;2024-03-02T13:36:52;1.87;;;1.27;;
7933;SDS011;4012;48.896;9.192;2024-03-02T13:39:17;0.90;;;0.90;;
7933;SDS011;4012;48.896;9.192;2024-03-02T13:41:43;1.20;;;1.10;;
7933;SDS011;4012;48.896;9.192;2024-03-02T13:44:17;3.10;;;1.57;;
7933;SDS011;4012;48.896;9.192;2024-03-02T13:46:43;1.37;;;0.90;;
7933;SDS011;4012;48.896;9.192;2024-03-02T13:49:10;0.93;;;0.93;;
7933;SDS011;4012;48.896;9.192;2024-03-02T13:51:36;6.23;;;1.37;;
7933;SDS011;4012;48.896;9.192;2024-03-02T13:54:02;1.30;;;1.20;;
7933;SDS011;4012;48.896;9.192;2024-03-02T13:56:28;0.97;;;0.90;;
7933;SDS011;4012;48.896;9.192;2024-03-02T13:58:54;1.03;;;0.93;;
7933;SDS011;4012;48.896;9.192;2024-03-02T14:01:20;1.97;;;1.10;;
7933;SDS011;4012;48.896;9.192;2024-03-02T14:03:46;2.70;;;1.87;;
7933;SDS011;4012;48.896;9.192;2024-03-02T14:06:12;1.23;;;1.10;;
7933;SDS011;4012;48.896;9.192;2024-03-02T14:08:37;1.73;;;1.10;;
7933;SDS011;4012;48.896;9.192;2024-03-02T14:11:03;1.30;;;1.07;;
7933;SDS011;4012;48.896;9.192;2024-03-02T14:13:29;1.50;;;1.40;;
7933;SDS011;4012;48.896;9.192;2024-03-02T14:15:54;1.40;;;1.17;;
7933;SDS011;4012;48.896;9.192;2024-03-02T14:18:20;1.43;;;1.20;;
7933;SDS011;4012;48.896;9.192;2024-03-02T14:20:46;1.33;;;1.10;;
7933;SDS011;4012;48.896;9.192;2024-03-02T14:23:18;1.33;;;1.10;;
7933;SDS011;4012;48.896;9.192;2024-03-02T14:25:45;1.27;;;1.17;;
7933;SDS011;4012;48.896;9.192;2024-03-02T14:28:10;3.57;;;1.93;;
7933;SDS011;4012;48.896;9.192;2024-03-02T14:30:37;1.00;;;1.00;;
7933;SDS011;4012;48.896;9.192;2024-03-02T14:33:02;1.50;;;1.10;;
7933;SDS011;4012;48.896;9.192;2024-03-02T14:35:28;1.30;;;1.20;;
7933;SDS011;4012;48.896;9.192;2024-03-02T14:37:54;3.67;;;1.20;;
7933;SDS011;4012;48.896;9.192;2024-03-02T14:40:20;1.37;;;1.27;;
7933;SDS011;4012;48.896;9.192;2024-03-02T14:42:46;2.10;;;1.60;;
7933;SDS011;4012;48.896;9.192;2024-03-02T14:45:13;1.40;;;1.30;;
7933;SDS011;4012;48.896;9.192;2024-03-02T14:47:39;1.50;;;1.40;;
7933;SDS011;4012;48.896;9.192;2024-03-02T14:50:05;1.90;;;1.60;;
7933;SDS011;4012;48.896;9.192;2024-03-02T14:52:31;2.20;;;1.50;;
7933;SDS011;4012;48.896;9.192;2024-03-02T14:54:57;1.33;;;1.10;;
7933;SDS011;4012;48.896;9.192;2024-03-02T14:57:23;1.70;;;1.50;;
7933;SDS011;4012;48.896;9.192;2024-03-02T14:59:49;1.63;;;1.40;;
7933;SDS011;4012;48.896;9.192;2024-03-02T15:02:14;1.43;;;1.33;;
7933;SDS011;4012;48.896;9.192;2024-03-02T15:04:40;1.40;;;1.30;;
7933;SDS011;4012;48.896;9.192;2024-03-02T15:07:05;1.40;;;1.30;;
7933;SDS011;4012;48.896;9.192;2024-03-02T15:09:31;1.87;;;1.30;;
7933;SDS011;4012;48.896;9.192;2024-03-02T15:11:59;1.67;;;1.33;;